Time;durP1;ratioP1;P1;durP2;ratioP2;P2;SDS_P1;SDS_P2;PMS_P1;PMS_P2;Temp;Humidity;BMP_temperature;BMP_pressure;BME280_temperature;BME280_humidity;BME280_pressure;Samples;Min_cycle;Max_cycle;Signal;HPM_P1;HPM_P2
2023/10/15 00:05:30;;;;;;;1999.90;999.90;;;;;;;10.91;100.00;98065.31;18619322;31;20048;-58
2023/10/15 00:15:33;;;;;;;1999.90;999.90;;;;;;;10.85;100.00;98061.75;18625604;31;20057;-58
2023/10/15 00:25:37;;;;;;;1999.90;999.90;;;;;;;10.84;100.00;98054.72;18611141;31;20111;-58
2023/10/15 00:35:44;;;;;;;1999.90;999.90;;;;;;;10.80;100.00;98063.63;18625117;31;20091;-58
2023/10/15 00:45:48;;;;;;;1999.90;999.90;;;;;;;10.78;100.00;98061.16;18624354;31;20060;-58
2023/10/15 00:55:54;;;;;;;1999.90;999.90;;;;;;;10.74;100.00;98064.66;18616365;31;20053;-58
2023/10/15 01:06:04;;;;;;;1999.90;999.90;;;;;;;10.72;100.00;98061.41;18637127;31;20063;-58
2023/10/15 01:16:08;;;;;;;1999.90;999.90;;;;;;;10.72;100.00;98056.81;18636309;31;20056;-58
2023/10/15 01:26:23;;;;;;;1999.90;999.90;;;;;;;10.67;100.00;98063.00;18635684;31;20052;-59
2023/10/15 01:36:28;;;;;;;;;;;;;;;10.60;100.00;98057.00;18620973;31;20052;-58
2023/10/15 01:46:47;;;;;;;1999.90;999.90;;;;;;;10.56;100.00;98053.19;18635278;31;19947;-58
2023/10/15 01:56:50;;;;;;;1999.90;999.90;;;;;;;10.51;100.00;98056.69;18627137;31;20075;-58
2023/10/15 02:06:53;;;;;;;1999.90;999.90;;;;;;;10.43;100.00;98053.62;18604867;31;20447;-58
2023/10/15 02:16:59;;;;;;;1999.90;999.90;;;;;;;10.28;100.00;98054.31;18632875;31;20048;-58
2023/10/15 02:27:06;;;;;;;1999.90;999.90;;;;;;;10.44;100.00;98042.56;18631951;31;20057;-58
2023/10/15 02:37:16;;;;;;;1999.90;999.90;;;;;;;10.42;100.00;98036.59;18631275;31;20104;-58
2023/10/15 02:47:19;;;;;;;1999.90;999.90;;;;;;;10.44;100.00;98034.47;18610763;31;20060;-58
2023/10/15 02:57:22;;;;;;;1999.90;999.90;;;;;;;10.48;100.00;98040.97;18630222;31;20053;-58
2023/10/15 03:07:30;;;;;;;1999.90;999.90;;;;;;;10.46;100.00;98048.53;18629412;31;20070;-58
2023/10/15 03:17:40;;;;;;;1999.90;999.90;;;;;;;10.36;100.00;98053.03;18615014;31;20113;-58
2023/10/15 03:27:46;;;;;;;1999.90;999.90;;;;;;;10.31;100.00;98038.38;18615038;31;20100;-58
2023/10/15 03:37:58;;;;;;;1999.90;999.90;;;;;;;10.30;100.00;98041.34;18627279;31;20060;-58
2023/10/15 03:48:01;;;;;;;1999.90;999.90;;;;;;;10.27;100.00;98044.56;18611667;31;20048;-58
2023/10/15 03:58:13;;;;;;;1999.90;999.90;;;;;;;10.11;100.00;98055.28;18626333;31;20049;-58
2023/10/15 04:08:18;;;;;;;1999.90;999.90;;;;;;;10.11;100.00;98052.56;18626011;31;20102;-58
2023/10/15 04:18:24;;;;;;;1999.90;999.90;;;;;;;10.05;100.00;98050.87;18625630;31;20065;-58
2023/10/15 04:28:28;;;;;;;1999.90;999.90;;;;;;;10.08;100.00;98055.75;18628958;31;20444;-58
2023/10/15 04:38:30;;;;;;;1999.90;999.90;;;;;;;10.06;100.00;98060.62;18617322;31;20101;-58
2023/10/15 04:48:36;;;;;;;1999.90;999.90;;;;;;;10.00;100.00;98064.34;18623711;31;20491;-58
2023/10/15 04:58:39;;;;;;;1999.90;999.90;;;;;;;10.00;100.00;98059.75;18610340;31;20044;-58
2023/10/15 05:08:47;;;;;;;1999.90;999.90;;;;;;;9.94;100.00;98051.88;18636899;31;20074;-58
2023/10/15 05:18:50;;;;;;;1999.90;999.90;;;;;;;9.89;100.00;98054.53;18636215;31;20104;-58
2023/10/15 05:28:52;;;;;;;1999.90;999.90;;;;;;;9.92;100.00;98059.41;18620813;31;20494;-58
2023/10/15 05:38:54;;;;;;;1999.90;999.90;;;;;;;9.89;100.00;98068.03;18634703;31;20044;-58
2023/10/15 05:48:59;;;;;;;1999.90;999.90;;;;;;;9.82;100.00;98071.72;18619890;31;20044;-58
2023/10/15 05:59:01;;;;;;;1999.90;999.90;;;;;;;9.83;100.00;98083.38;18633671;31;20057;-58
2023/10/15 06:09:05;;;;;;;1999.90;999.90;;;;;;;9.77;100.00;98081.66;18633484;31;20075;-58
2023/10/15 06:19:10;;;;;;;1999.90;999.90;;;;;;;9.80;100.00;98109.00;18632506;31;20061;-58
2023/10/15 06:29:13;;;;;;;1999.90;999.90;;;;;;;9.88;100.00;98091.53;18625274;31;20056;-58
2023/10/15 06:39:16;;;;;;;1999.90;999.90;;;;;;;9.96;100.00;98115.38;18631286;31;20064;-58
2023/10/15 06:49:19;;;;;;;1999.90;999.90;;;;;;;9.87;100.00;98132.28;18630128;31;20075;-59
2023/10/15 06:59:21;;;;;;;1999.90;999.90;;;;;;;9.95;100.00;98142.66;18616187;31;20044;-58
2023/10/15 07:09:24;;;;;;;1999.90;999.90;;;;;;;10.00;100.00;98150.78;18629844;31;20096;-58
2023/10/15 07:19:27;;;;;;;1999.90;999.90;;;;;;;10.16;100.00;98157.16;18610773;31;20098;-58
2023/10/15 07:29:29;;;;;;;1999.90;999.90;;;;;;;10.32;100.00;98160.84;18611322;31;20141;-58
2023/10/15 07:39:32;;;;;;;1999.90;999.90;;;;;;;10.56;100.00;98172.16;18612875;31;20079;-58
2023/10/15 07:49:35;;;;;;;1999.90;999.90;;;;;;;10.70;100.00;98188.78;18613114;31;20092;-58
2023/10/15 07:59:37;;;;;;;1999.90;999.90;;;;;;;11.01;100.00;98187.09;18626465;31;20060;-58
2023/10/15 08:09:41;;;;;;;1999.90;999.90;;;;;;;11.15;100.00;98189.38;18626256;31;20436;-58
2023/10/15 08:19:44;;;;;;;1999.90;999.90;;;;;;;11.34;100.00;98193.28;18625285;31;20053;-58
2023/10/15 08:29:47;;;;;;;1999.90;999.90;;;;;;;11.49;100.00;98207.97;18610879;31;20060;-58
2023/10/15 08:39:50;;;;;;;1999.90;999.90;;;;;;;11.34;100.00;98203.28;18624751;31;20085;-58
2023/10/15 08:49:55;;;;;;;1999.90;999.90;;;;;;;11.58;100.00;98214.53;18610699;31;20091;-58
2023/10/15 08:59:59;;;;;;;1999.90;999.90;;;;;;;11.60;100.00;98208.84;18624440;31;20467;-58
2023/10/15 09:10:08;;;;;;;1999.90;999.90;;;;;;;11.72;100.00;98220.28;18617320;31;20056;-58
2023/10/15 09:20:12;;;;;;;1999.90;999.90;;;;;;;11.85;100.00;98222.53;18634085;31;20474;-58
2023/10/15 09:30:22;;;;;;;1999.90;999.90;;;;;;;11.99;100.00;98224.75;18621782;31;20048;-58
2023/10/15 09:40:30;;;;;;;1999.90;999.90;;;;;;;12.22;100.00;98230.81;18620676;31;20074;-58
2023/10/15 09:50:38;;;;;;;1999.90;999.90;;;;;;;12.00;100.00;98224.50;18607748;31;20061;-58
2023/10/15 10:01:25;;;;;;;1999.90;999.90;;;;;;;12.07;100.00;98232.37;18614168;31;20071;-58
2023/10/15 10:11:45;;;;;;;1999.90;999.90;;;;;;;12.13;100.00;98225.91;18630554;31;20424;-58
2023/10/15 10:21:48;;;;;;;1999.90;999.90;;;;;;;12.17;100.00;98218.88;18618364;31;20061;-58
2023/10/15 10:31:51;;;;;;;1999.90;999.90;;;;;;;11.97;100.00;98235.06;18630783;31;20064;-58
2023/10/15 10:41:55;;;;;;;1999.90;999.90;;;;;;;12.14;100.00;98222.12;18616104;31;20044;-58
2023/10/15 10:52:15;;;;;;;1999.90;999.90;;;;;;;12.44;100.00;98225.97;18630604;31;20061;-58
2023/10/15 11:02:20;;;;;;;1999.90;999.90;;;;;;;12.07;100.00;98210.69;18615806;31;20439;-58
2023/10/15 11:12:23;;;;;;;1999.90;999.90;;;;;;;11.78;100.00;98197.53;18629263;31;20080;-58
2023/10/15 11:22:26;;;;;;;1999.90;999.90;;;;;;;11.86;100.00;98180.78;18614354;31;20062;-58
2023/10/15 11:32:35;;;;;;;1999.90;999.90;;;;;;;12.33;100.00;98187.19;18627813;31;20065;-58
2023/10/15 11:42:54;;;;;;;1999.90;999.90;;;;;;;13.15;100.00;98185.56;18612725;31;20356;-58
2023/10/15 11:52:58;;;;;;;1999.90;999.90;;;;;;;13.16;96.31;98176.31;18620199;31;20078;-58
2023/10/15 12:03:05;;;;;;;1999.90;999.90;;;;;;;13.77;96.93;98164.47;18611827;31;20060;-58
2023/10/15 12:13:09;;;;;;;1999.90;999.90;;;;;;;14.51;100.00;98167.31;18626184;31;20057;-58
2023/10/15 12:23:12;;;;;;;1999.90;999.90;;;;;;;13.90;100.00;98173.94;18625469;31;20474;-58
2023/10/15 12:33:16;;;;;;;1999.90;999.90;;;;;;;13.68;100.00;98187.91;18625390;31;20105;-58
2023/10/15 12:43:20;;;;;;;1999.90;999.90;;;;;;;13.27;100.00;98187.97;18624628;31;20440;-58
2023/10/15 12:53:24;;;;;;;1999.90;999.90;;;;;;;13.27;100.00;98187.97;18632765;31;20052;-58
2023/10/15 13:03:28;;;;;;;1999.90;999.90;;;;;;;13.18;100.00;98191.25;18637085;31;20473;-58
2023/10/15 13:13:31;;;;;;;1999.90;999.90;;;;;;;13.15;100.00;98199.94;18636551;31;20131;-58
2023/10/15 13:23:38;;;;;;;1999.90;999.90;;;;;;;13.13;100.00;98199.41;18635970;31;20052;-58
2023/10/15 13:33:41;;;;;;;1999.90;999.90;;;;;;;13.17;100.00;98192.34;18621282;31;20079;-58
2023/10/15 13:43:44;;;;;;;1999.90;999.90;;;;;;;12.81;100.00;98192.38;18619958;31;20048;-58
2023/10/15 13:53:47;;;;;;;1999.90;999.90;;;;;;;13.17;82.43;98205.91;18634436;31;20067;-57
2023/10/15 14:03:51;;;;;;;1999.90;999.90;;;;;;;12.90;97.55;98199.97;18633231;31;20056;-58
2023/10/15 14:13:55;;;;;;;1999.90;999.90;;;;;;;12.62;81.15;98215.69;18632631;31;20059;-58
2023/10/15 14:23:57;;;;;;;1999.90;999.90;;;;;;;12.25;88.55;98214.84;18632217;31;20076;-58
2023/10/15 14:34:00;;;;;;;1999.90;999.90;;;;;;;12.59;96.94;98216.22;18630806;31;20400;-57
2023/10/15 14:44:04;;;;;;;1999.90;999.90;;;;;;;12.46;100.00;98223.00;18625225;31;20088;-58
2023/10/15 14:54:07;;;;;;;1999.90;999.90;;;;;;;12.34;97.71;98228.66;18615941;31;20048;-57
2023/10/15 15:04:11;;;;;;;1999.90;999.90;;;;;;;12.33;90.03;98224.31;18629525;31;20452;-57
2023/10/15 15:14:13;;;;;;;1999.90;999.90;;;;;;;12.33;100.00;98225.16;18628439;31;20052;-58
2023/10/15 15:24:17;;;;;;;1999.90;999.90;;;;;;;12.24;100.00;98231.34;18628193;31;20073;-56
2023/10/15 15:34:21;;;;;;;1999.90;999.90;;;;;;;12.39;100.00;98231.41;18613084;31;20060;-58
2023/10/15 15:44:23;;;;;;;1999.90;999.90;;;;;;;12.25;100.00;98232.97;18599651;31;20041;-58
2023/10/15 15:54:28;;;;;;;1999.90;999.90;;;;;;;11.67;100.00;98233.81;18626925;31;20056;-58
2023/10/15 16:04:31;;;;;;;;;;;;;;;11.49;94.01;98230.47;18626719;31;20557;-57
2023/10/15 16:14:35;;;;;;;1999.90;999.90;;;;;;;11.45;100.00;98231.25;18611614;31;20267;-57
2023/10/15 16:24:38;;;;;;;1999.90;999.90;;;;;;;11.18;100.00;98241.09;18603789;31;20065;-58
2023/10/15 16:34:48;;;;;;;1999.90;999.90;;;;;;;11.15;100.00;98244.31;18625635;31;20124;-57
2023/10/15 16:44:52;;;;;;;1999.90;999.90;;;;;;;10.98;84.30;98247.16;18610595;31;20103;-57
2023/10/15 16:54:54;;;;;;;1999.90;999.90;;;;;;;10.87;100.00;98264.41;18610494;31;20059;-57
2023/10/15 17:04:56;;;;;;;1999.90;999.90;;;;;;;10.75;100.00;98264.56;18597236;31;20097;-57
2023/10/15 17:15:00;;;;;;;1999.90;999.90;;;;;;;10.40;100.00;98265.84;18609172;31;20119;-57
2023/10/15 17:25:04;;;;;;;1999.90;999.90;;;;;;;10.21;100.00;98286.13;18618181;31;20073;-57
2023/10/15 17:35:07;;;;;;;1999.90;999.90;;;;;;;9.73;100.00;98285.78;18611696;31;20082;-57
2023/10/15 17:45:10;;;;;;;1999.90;999.90;;;;;;;9.38;100.00;98282.34;18634792;31;20052;-57
2023/10/15 17:55:13;;;;;;;1999.90;999.90;;;;;;;9.16;100.00;98296.56;18607312;31;20436;-56
2023/10/15 18:05:16;;;;;;;1999.90;999.90;;;;;;;9.20;100.00;98306.88;18633588;31;20079;-57
2023/10/15 18:15:18;;;;;;;1999.90;999.90;;;;;;;8.80;100.00;98305.94;18612147;31;20079;-56
2023/10/15 18:25:20;;;;;;;1999.90;999.90;;;;;;;8.63;100.00;98300.50;18632626;31;20095;-56
2023/10/15 18:35:23;;;;;;;1999.90;999.90;;;;;;;8.36;100.00;98298.38;18617932;31;20084;-55
2023/10/15 18:45:25;;;;;;;1999.90;999.90;;;;;;;8.07;100.00;98298.34;18630208;31;20478;-55
2023/10/15 18:55:29;;;;;;;1999.90;999.90;;;;;;;7.84;100.00;98306.47;18616487;31;20053;-57
2023/10/15 19:05:31;;;;;;;1999.90;999.90;;;;;;;7.56;100.00;98302.63;18629959;31;20120;-54
2023/10/15 19:15:36;;;;;;;1999.90;999.90;;;;;;;7.32;100.00;98317.94;18629270;31;20093;-56
2023/10/15 19:25:38;;;;;;;1999.90;999.90;;;;;;;7.35;100.00;98330.94;18628605;31;20053;-56
2023/10/15 19:35:46;;;;;;;1999.90;999.90;;;;;;;7.40;100.00;98337.25;18613762;31;20068;-56
2023/10/15 19:45:50;;;;;;;1999.90;999.90;;;;;;;7.33;100.00;98343.78;18627500;31;20142;-56
2023/10/15 19:55:53;;;;;;;1999.90;999.90;;;;;;;7.34;100.00;98340.88;18626825;31;20119;-57
2023/10/15 20:05:59;;;;;;;1999.90;999.90;;;;;;;7.34;100.00;98340.88;18626286;31;20096;-57
2023/10/15 20:16:02;;;;;;;1999.90;999.90;;;;;;;7.03;100.00;98340.13;18626052;31;20070;-57
2023/10/15 20:26:04;;;;;;;1999.90;999.90;;;;;;;6.97;100.00;98346.41;18625626;31;20384;-56
2023/10/15 20:36:09;;;;;;;;;;;;;;;6.82;100.00;98348.72;18626181;31;20500;-56
2023/10/15 20:46:11;;;;;;;1999.90;999.90;;;;;;;6.60;100.00;98350.06;18610866;31;19944;-57
2023/10/15 20:56:14;;;;;;;1999.90;999.90;;;;;;;6.50;100.00;98348.94;18622291;31;20092;-56
2023/10/15 21:06:17;;;;;;;1999.90;999.90;;;;;;;6.56;100.00;98345.34;18606250;31;20070;-57
2023/10/15 21:16:19;;;;;;;1999.90;999.90;;;;;;;6.44;100.00;98339.91;18634614;31;20084;-56
2023/10/15 21:26:22;;;;;;;1999.90;999.90;;;;;;;6.11;100.00;98330.38;18636426;31;20049;-55
2023/10/15 21:36:25;;;;;;;1999.90;999.90;;;;;;;5.98;100.00;98334.06;18635584;31;20061;-55
2023/10/15 21:46:27;;;;;;;1999.90;999.90;;;;;;;5.82;100.00;98323.87;18634597;31;20052;-56
2023/10/15 21:56:30;;;;;;;1999.90;999.90;;;;;;;5.70;100.00;98313.91;18627618;31;20068;-56
2023/10/15 22:06:33;;;;;;;1999.90;999.90;;;;;;;5.45;100.00;98310.44;18633907;31;20053;-56
2023/10/15 22:16:37;;;;;;;1999.90;999.90;;;;;;;5.28;100.00;98296.78;18633057;31;20061;-55
2023/10/15 22:26:43;;;;;;;1999.90;999.90;;;;;;;5.14;100.00;98294.19;18618539;31;20052;-55
2023/10/15 22:36:47;;;;;;;1999.90;999.90;;;;;;;5.11;100.00;98281.22;18631947;31;20057;-56
2023/10/15 22:46:49;;;;;;;1999.90;999.90;;;;;;;5.01;100.00;98283.59;18624656;31;20065;-56
2023/10/15 22:56:53;;;;;;;1999.90;999.90;;;;;;;4.89;100.00;98268.22;18616042;31;20057;-55
2023/10/15 23:06:55;;;;;;;1999.90;999.90;;;;;;;4.90;100.00;98264.47;18630026;31;20454;-56
2023/10/15 23:17:00;;;;;;;1999.90;999.90;;;;;;;4.87;100.00;98253.41;18615256;31;20057;-55
2023/10/15 23:27:07;;;;;;;;;;;;;;;4.80;100.00;98248.09;18629166;31;20071;-56
2023/10/15 23:37:10;;;;;;;1999.90;999.90;;;;;;;4.69;100.00;98233.53;18628650;31;19966;-56
2023/10/15 23:47:14;;;;;;;1999.90;999.90;;;;;;;4.77;100.00;98224.41;18627079;31;20111;-54
2023/10/15 23:57:23;;;;;;;1999.90;999.90;;;;;;;4.80;100.00;98215.94;18599986;31;20455;-56
